Time;durP1;ratioP1;P1;durP2;ratioP2;P2;SDS_P1;SDS_P2;PMS_P1;PMS_P2;Temp;Humidity;BMP_temperature;BMP_pressure;BME280_temperature;BME280_humidity;BME280_pressure;Samples;Min_cycle;Max_cycle;Signal;HPM_P1;HPM_P2
2023/08/09 20:10:51;;;;;;;0.60;0.60;;;;;;;;;;10597773;23;20051;-82
2023/08/09 20:18:05;;;;;;;1.88;0.75;;;;;;;;;;10481774;27;20357;-84
2023/08/09 20:23:09;;;;;;;0.55;0.50;;;;;;;;;;10472462;28;20068;-83
2023/08/09 20:28:12;;;;;;;0.80;0.60;;;;;;;;;;10479967;28;20132;-83
2023/08/09 20:33:17;;;;;;;1.13;0.80;;;;;;;;;;10469540;28;20469;-84
2023/08/09 20:38:20;;;;;;;1.08;0.63;;;;;;;;;;10456977;28;20131;-84
2023/08/09 20:43:24;;;;;;;0.80;0.60;;;;;;;;;;10472595;28;20496;-84
2023/08/09 20:48:29;;;;;;;0.85;0.60;;;;;;;;;;10482287;28;20045;-84
2023/08/09 20:53:32;;;;;;;1.92;0.80;;;;;;;;;;10469783;28;20521;-83
2023/08/09 20:58:37;;;;;;;1.05;0.73;;;;;;;;;;10466203;28;20044;-84
2023/08/09 21:03:42;;;;;;;1.13;0.80;;;;;;;;;;10468769;28;20246;-84
2023/08/09 21:08:45;;;;;;;2.80;0.68;;;;;;;;;;10466772;28;20041;-84
2023/08/09 21:13:49;;;;;;;1.70;0.80;;;;;;;;;;10470121;28;20124;-84
2023/08/09 21:18:53;;;;;;;1.55;0.80;;;;;;;;;;10463627;28;20064;-84
2023/08/09 21:23:57;;;;;;;0.50;0.50;;;;;;;;;;10486776;28;20573;-85
2023/08/09 21:29:22;;;;;;;0.93;0.80;;;;;;;;;;10453365;28;20068;-84
2023/08/09 21:34:27;;;;;;;0.63;0.63;;;;;;;;;;10433778;28;20077;-84
2023/08/09 21:39:30;;;;;;;1.17;0.90;;;;;;;;;;10437069;28;20693;-84
2023/08/09 21:44:33;;;;;;;0.90;0.70;;;;;;;;;;10440387;28;20069;-83
2023/08/09 21:49:38;;;;;;;1.35;0.80;;;;;;;;;;10436117;28;20053;-83
2023/08/09 21:54:41;;;;;;;1.63;0.90;;;;;;;;;;10439703;28;20073;-84
2023/08/09 21:59:45;;;;;;;3.47;1.00;;;;;;;;;;10439475;28;20132;-85
2023/08/09 22:04:50;;;;;;;1.23;0.90;;;;;;;;;;10439090;28;20037;-84
2023/08/09 22:09:53;;;;;;;1.20;0.90;;;;;;;;;;10440588;28;20561;-84
2023/08/09 22:14:56;;;;;;;1.25;0.98;;;;;;;;;;10439550;28;20047;-84
2023/08/09 22:20:01;;;;;;;1.13;1.00;;;;;;;;;;10438812;28;20044;-84
2023/08/09 22:25:05;;;;;;;1.23;0.90;;;;;;;;;;10441551;28;20091;-84
2023/08/09 22:30:10;;;;;;;1.00;0.90;;;;;;;;;;10455962;28;20120;-85
2023/08/09 22:35:14;;;;;;;1.77;0.80;;;;;;;;;;10436072;28;20061;-85
2023/08/09 22:40:18;;;;;;;1.27;1.00;;;;;;;;;;10438314;28;20055;-85
2023/08/09 22:45:21;;;;;;;1.33;0.88;;;;;;;;;;10440724;28;20072;-85
2023/08/09 22:50:26;;;;;;;0.85;0.75;;;;;;;;;;10455391;28;20419;-84
2023/08/09 22:55:29;;;;;;;1.48;0.70;;;;;;;;;;10455594;28;20407;-84
2023/08/09 23:00:33;;;;;;;1.73;0.90;;;;;;;;;;10447691;28;20049;-84
2023/08/09 23:05:38;;;;;;;1.55;0.80;;;;;;;;;;10433909;28;20141;-84
2023/08/09 23:10:41;;;;;;;3.03;1.10;;;;;;;;;;10437617;28;20094;-84
2023/08/09 23:15:44;;;;;;;1.65;1.00;;;;;;;;;;10439914;28;20116;-84
2023/08/09 23:20:50;;;;;;;1.23;1.05;;;;;;;;;;10438019;28;20124;-83
2023/08/09 23:25:53;;;;;;;0.90;0.90;;;;;;;;;;10439039;28;22018;-84
2023/08/09 23:30:59;;;;;;;4.68;1.05;;;;;;;;;;10437452;28;20124;-85
2023/08/09 23:36:04;;;;;;;1.25;1.00;;;;;;;;;;10455300;28;20056;-84
2023/08/09 23:41:08;;;;;;;1.13;0.80;;;;;;;;;;10438904;28;20132;-84
2023/08/09 23:46:11;;;;;;;1.00;0.90;;;;;;;;;;10437736;28;20099;-84
2023/08/09 23:51:16;;;;;;;1.85;1.00;;;;;;;;;;10453617;28;20506;-84
2023/08/09 23:56:19;;;;;;;2.25;0.90;;;;;;;;;;10438196;28;20475;-84
